<?xml version="1.0" encoding="UTF-8" standalone="no" ?>
<gpx xmlns="http://www.topografix.com/GPX/1/1" xmlns:xsi="http://www.w3.org/2001/XMLSchema-instance" xsi:schemaLocation="http://www.topografix.com/GPX/1/1 http://www.topografix.com/GPX/1/1/gpx.xsd" version="1.1" creator="VisuGPX - https://www.visugpx.com">
  <metadata>
    <name>10 bornes du cade</name>
    <desc><![CDATA[Parcours des 10 bornes vertes du cade]]></desc>
  </metadata>
  <wpt lat="25.0618" lon="121.6403">
    <name><![CDATA[Garmin_Asia]]></name>
    <link href="C:/Users/jef/AppData/Roaming/Garmin/BaseCamp/GeotaggedPhotos/Garmin_Asia.jpg"></link>
    <type><![CDATA[photo]]></type>
  </wpt>
  <wpt lat="50.9017" lon="-1.4894">
    <name><![CDATA[Garmin_Europe]]></name>
    <link href="C:/Users/jef/AppData/Roaming/Garmin/BaseCamp/GeotaggedPhotos/Garmin_Europe.jpg"></link>
    <type><![CDATA[photo]]></type>
  </wpt>
  <wpt lat="38.8556" lon="-94.799">
    <name><![CDATA[Garmin_USA]]></name>
    <link href="C:/Users/jef/AppData/Roaming/Garmin/BaseCamp/GeotaggedPhotos/Garmin_USA.jpg"></link>
    <type><![CDATA[photo]]></type>
  </wpt>
  <trk>
    <name><![CDATA[Tracé actuel: 31 AOU 2013 14:54]]></name>
    <trkseg>
      <trkpt lat="44.11908" lon="3.11979">
        <ele>733.62</ele>
        <time>2013-08-31T12:56:17Z</time>
      </trkpt>
      <trkpt lat="44.11888" lon="3.11967">
        <ele>734.58</ele>
        <time>2013-08-31T12:56:33Z</time>
      </trkpt>
      <trkpt lat="44.11878" lon="3.11968">
        <ele>735.55</ele>
        <time>2013-08-31T12:56:41Z</time>
      </trkpt>
      <trkpt lat="44.11855" lon="3.11978">
        <ele>736.03</ele>
        <time>2013-08-31T12:56:54Z</time>
      </trkpt>
      <trkpt lat="44.11844" lon="3.1198">
        <ele>736.99</ele>
        <time>2013-08-31T12:57:07Z</time>
      </trkpt>
      <trkpt lat="44.11838" lon="3.11987">
        <ele>737.47</ele>
        <time>2013-08-31T12:57:11Z</time>
      </trkpt>
      <trkpt lat="44.11817" lon="3.12009">
        <ele>738.43</ele>
        <time>2013-08-31T12:57:25Z</time>
      </trkpt>
      <trkpt lat="44.11811" lon="3.12014">
        <ele>738.43</ele>
        <time>2013-08-31T12:57:30Z</time>
      </trkpt>
      <trkpt lat="44.1179" lon="3.12038">
        <ele>738.43</ele>
        <time>2013-08-31T12:57:47Z</time>
      </trkpt>
      <trkpt lat="44.11781" lon="3.12048">
        <ele>739.39</ele>
        <time>2013-08-31T12:57:57Z</time>
      </trkpt>
      <trkpt lat="44.11775" lon="3.12052">
        <ele>738.91</ele>
        <time>2013-08-31T12:58:01Z</time>
      </trkpt>
      <trkpt lat="44.11756" lon="3.12052">
        <ele>737.47</ele>
        <time>2013-08-31T12:58:15Z</time>
      </trkpt>
      <trkpt lat="44.11738" lon="3.12053">
        <ele>735.55</ele>
        <time>2013-08-31T12:58:29Z</time>
      </trkpt>
      <trkpt lat="44.11735" lon="3.12054">
        <ele>736.03</ele>
        <time>2013-08-31T12:58:32Z</time>
      </trkpt>
      <trkpt lat="44.11719" lon="3.12061">
        <ele>734.58</ele>
        <time>2013-08-31T12:58:47Z</time>
      </trkpt>
      <trkpt lat="44.11706" lon="3.12072">
        <ele>732.18</ele>
        <time>2013-08-31T12:59:00Z</time>
      </trkpt>
      <trkpt lat="44.11702" lon="3.12092">
        <ele>731.22</ele>
        <time>2013-08-31T12:59:16Z</time>
      </trkpt>
      <trkpt lat="44.11698" lon="3.12101">
        <ele>731.7</ele>
        <time>2013-08-31T12:59:21Z</time>
      </trkpt>
      <trkpt lat="44.11693" lon="3.1213">
        <ele>732.66</ele>
        <time>2013-08-31T12:59:36Z</time>
      </trkpt>
      <trkpt lat="44.1169" lon="3.1214">
        <ele>732.66</ele>
        <time>2013-08-31T12:59:41Z</time>
      </trkpt>
      <trkpt lat="44.11678" lon="3.12168">
        <ele>732.66</ele>
        <time>2013-08-31T12:59:55Z</time>
      </trkpt>
      <trkpt lat="44.11677" lon="3.12182">
        <ele>734.1</ele>
        <time>2013-08-31T13:00:04Z</time>
      </trkpt>
      <trkpt lat="44.11675" lon="3.12194">
        <ele>734.58</ele>
        <time>2013-08-31T13:00:08Z</time>
      </trkpt>
      <trkpt lat="44.11674" lon="3.12205">
        <ele>734.58</ele>
        <time>2013-08-31T13:00:12Z</time>
      </trkpt>
      <trkpt lat="44.11671" lon="3.12222">
        <ele>735.55</ele>
        <time>2013-08-31T13:00:20Z</time>
      </trkpt>
      <trkpt lat="44.11667" lon="3.12229">
        <ele>735.55</ele>
        <time>2013-08-31T13:00:24Z</time>
      </trkpt>
      <trkpt lat="44.11663" lon="3.12253">
        <ele>736.99</ele>
        <time>2013-08-31T13:00:36Z</time>
      </trkpt>
      <trkpt lat="44.11663" lon="3.12271">
        <ele>738.91</ele>
        <time>2013-08-31T13:00:50Z</time>
      </trkpt>
      <trkpt lat="44.11661" lon="3.12293">
        <ele>740.83</ele>
        <time>2013-08-31T13:01:04Z</time>
      </trkpt>
      <trkpt lat="44.11668" lon="3.12309">
        <ele>741.79</ele>
        <time>2013-08-31T13:01:18Z</time>
      </trkpt>
      <trkpt lat="44.11673" lon="3.12321">
        <ele>741.79</ele>
        <time>2013-08-31T13:01:24Z</time>
      </trkpt>
      <trkpt lat="44.1169" lon="3.12347">
        <ele>741.31</ele>
        <time>2013-08-31T13:01:38Z</time>
      </trkpt>
      <trkpt lat="44.11697" lon="3.12365">
        <ele>740.83</ele>
        <time>2013-08-31T13:01:49Z</time>
      </trkpt>
      <trkpt lat="44.11707" lon="3.12385">
        <ele>739.87</ele>
        <time>2013-08-31T13:02:02Z</time>
      </trkpt>
      <trkpt lat="44.11719" lon="3.124">
        <ele>739.39</ele>
        <time>2013-08-31T13:02:16Z</time>
      </trkpt>
      <trkpt lat="44.11731" lon="3.12423">
        <ele>738.91</ele>
        <time>2013-08-31T13:02:28Z</time>
      </trkpt>
      <trkpt lat="44.1175" lon="3.12435">
        <ele>738.91</ele>
        <time>2013-08-31T13:02:40Z</time>
      </trkpt>
      <trkpt lat="44.11771" lon="3.12462">
        <ele>742.28</ele>
        <time>2013-08-31T13:02:53Z</time>
      </trkpt>
      <trkpt lat="44.1178" lon="3.12484">
        <ele>745.64</ele>
        <time>2013-08-31T13:03:09Z</time>
      </trkpt>
      <trkpt lat="44.1179" lon="3.12507">
        <ele>747.56</ele>
        <time>2013-08-31T13:03:23Z</time>
      </trkpt>
      <trkpt lat="44.11802" lon="3.12527">
        <ele>747.56</ele>
        <time>2013-08-31T13:03:38Z</time>
      </trkpt>
      <trkpt lat="44.11814" lon="3.12551">
        <ele>747.08</ele>
        <time>2013-08-31T13:03:50Z</time>
      </trkpt>
      <trkpt lat="44.11824" lon="3.12575">
        <ele>747.08</ele>
        <time>2013-08-31T13:04:04Z</time>
      </trkpt>
      <trkpt lat="44.11834" lon="3.12597">
        <ele>749.49</ele>
        <time>2013-08-31T13:04:18Z</time>
      </trkpt>
      <trkpt lat="44.11848" lon="3.1262">
        <ele>752.37</ele>
        <time>2013-08-31T13:04:33Z</time>
      </trkpt>
      <trkpt lat="44.11855" lon="3.12643">
        <ele>755.25</ele>
        <time>2013-08-31T13:04:49Z</time>
      </trkpt>
      <trkpt lat="44.11868" lon="3.12659">
        <ele>758.14</ele>
        <time>2013-08-31T13:05:02Z</time>
      </trkpt>
      <trkpt lat="44.11891" lon="3.12688">
        <ele>761.02</ele>
        <time>2013-08-31T13:05:24Z</time>
      </trkpt>
      <trkpt lat="44.1191" lon="3.12711">
        <ele>763.42</ele>
        <time>2013-08-31T13:05:43Z</time>
      </trkpt>
      <trkpt lat="44.11939" lon="3.12738">
        <ele>766.31</ele>
        <time>2013-08-31T13:06:07Z</time>
      </trkpt>
      <trkpt lat="44.11956" lon="3.12769">
        <ele>768.71</ele>
        <time>2013-08-31T13:06:29Z</time>
      </trkpt>
      <trkpt lat="44.11981" lon="3.12786">
        <ele>771.11</ele>
        <time>2013-08-31T13:06:47Z</time>
      </trkpt>
      <trkpt lat="44.12" lon="3.12804">
        <ele>774.48</ele>
        <time>2013-08-31T13:07:02Z</time>
      </trkpt>
      <trkpt lat="44.12019" lon="3.12815">
        <ele>777.36</ele>
        <time>2013-08-31T13:07:20Z</time>
      </trkpt>
      <trkpt lat="44.12043" lon="3.12824">
        <ele>778.81</ele>
        <time>2013-08-31T13:07:39Z</time>
      </trkpt>
      <trkpt lat="44.12072" lon="3.12828">
        <ele>780.25</ele>
        <time>2013-08-31T13:07:58Z</time>
      </trkpt>
      <trkpt lat="44.12098" lon="3.12838">
        <ele>780.73</ele>
        <time>2013-08-31T13:08:21Z</time>
      </trkpt>
      <trkpt lat="44.12126" lon="3.12832">
        <ele>781.21</ele>
        <time>2013-08-31T13:08:42Z</time>
      </trkpt>
      <trkpt lat="44.12155" lon="3.12815">
        <ele>781.21</ele>
        <time>2013-08-31T13:09:04Z</time>
      </trkpt>
      <trkpt lat="44.12175" lon="3.12806">
        <ele>781.69</ele>
        <time>2013-08-31T13:09:34Z</time>
      </trkpt>
      <trkpt lat="44.12186" lon="3.12797">
        <ele>780.73</ele>
        <time>2013-08-31T13:10:00Z</time>
      </trkpt>
      <trkpt lat="44.12196" lon="3.12797">
        <ele>781.21</ele>
        <time>2013-08-31T13:10:27Z</time>
      </trkpt>
      <trkpt lat="44.12199" lon="3.12803">
        <ele>780.73</ele>
        <time>2013-08-31T13:10:51Z</time>
      </trkpt>
      <trkpt lat="44.12215" lon="3.12787">
        <ele>778.81</ele>
        <time>2013-08-31T13:11:09Z</time>
      </trkpt>
      <trkpt lat="44.12229" lon="3.12767">
        <ele>776.88</ele>
        <time>2013-08-31T13:11:24Z</time>
      </trkpt>
      <trkpt lat="44.12249" lon="3.12746">
        <ele>773.52</ele>
        <time>2013-08-31T13:11:41Z</time>
      </trkpt>
      <trkpt lat="44.12252" lon="3.12741">
        <ele>772.08</ele>
        <time>2013-08-31T13:11:44Z</time>
      </trkpt>
      <trkpt lat="44.1227" lon="3.1271">
        <ele>770.63</ele>
        <time>2013-08-31T13:11:59Z</time>
      </trkpt>
      <trkpt lat="44.12271" lon="3.12704">
        <ele>770.63</ele>
        <time>2013-08-31T13:12:02Z</time>
      </trkpt>
      <trkpt lat="44.12281" lon="3.12665">
        <ele>770.15</ele>
        <time>2013-08-31T13:12:18Z</time>
      </trkpt>
      <trkpt lat="44.12282" lon="3.12658">
        <ele>769.67</ele>
        <time>2013-08-31T13:12:22Z</time>
      </trkpt>
      <trkpt lat="44.12283" lon="3.12653">
        <ele>769.67</ele>
        <time>2013-08-31T13:12:24Z</time>
      </trkpt>
      <trkpt lat="44.12286" lon="3.12643">
        <ele>768.71</ele>
        <time>2013-08-31T13:12:28Z</time>
      </trkpt>
      <trkpt lat="44.1229" lon="3.12625">
        <ele>769.19</ele>
        <time>2013-08-31T13:12:36Z</time>
      </trkpt>
      <trkpt lat="44.12293" lon="3.12609">
        <ele>769.19</ele>
        <time>2013-08-31T13:12:41Z</time>
      </trkpt>
      <trkpt lat="44.12294" lon="3.12605">
        <ele>769.19</ele>
        <time>2013-08-31T13:12:43Z</time>
      </trkpt>
      <trkpt lat="44.12294" lon="3.12602">
        <ele>769.19</ele>
        <time>2013-08-31T13:12:44Z</time>
      </trkpt>
      <trkpt lat="44.12297" lon="3.12571">
        <ele>767.75</ele>
        <time>2013-08-31T13:12:57Z</time>
      </trkpt>
      <trkpt lat="44.12297" lon="3.12568">
        <ele>767.75</ele>
        <time>2013-08-31T13:12:58Z</time>
      </trkpt>
      <trkpt lat="44.12295" lon="3.12541">
        <ele>766.79</ele>
        <time>2013-08-31T13:13:11Z</time>
      </trkpt>
      <trkpt lat="44.12292" lon="3.12535">
        <ele>766.79</ele>
        <time>2013-08-31T13:13:17Z</time>
      </trkpt>
      <trkpt lat="44.12282" lon="3.12521">
        <ele>767.27</ele>
        <time>2013-08-31T13:13:29Z</time>
      </trkpt>
      <trkpt lat="44.12271" lon="3.125">
        <ele>766.79</ele>
        <time>2013-08-31T13:13:43Z</time>
      </trkpt>
      <trkpt lat="44.12263" lon="3.12465">
        <ele>764.39</ele>
        <time>2013-08-31T13:14:06Z</time>
      </trkpt>
      <trkpt lat="44.12257" lon="3.12422">
        <ele>762.46</ele>
        <time>2013-08-31T13:14:23Z</time>
      </trkpt>
      <trkpt lat="44.12254" lon="3.12403">
        <ele>761.98</ele>
        <time>2013-08-31T13:14:30Z</time>
      </trkpt>
      <trkpt lat="44.12255" lon="3.12391">
        <ele>760.54</ele>
        <time>2013-08-31T13:14:37Z</time>
      </trkpt>
      <trkpt lat="44.12256" lon="3.1239">
        <ele>763.42</ele>
        <time>2013-08-31T13:14:38Z</time>
      </trkpt>
      <trkpt lat="44.12256" lon="3.12388">
        <ele>761.98</ele>
        <time>2013-08-31T13:14:39Z</time>
      </trkpt>
      <trkpt lat="44.12257" lon="3.12379">
        <ele>762.94</ele>
        <time>2013-08-31T13:14:43Z</time>
      </trkpt>
      <trkpt lat="44.12269" lon="3.12355">
        <ele>762.94</ele>
        <time>2013-08-31T13:14:59Z</time>
      </trkpt>
      <trkpt lat="44.12285" lon="3.12348">
        <ele>762.94</ele>
        <time>2013-08-31T13:15:10Z</time>
      </trkpt>
      <trkpt lat="44.123" lon="3.12348">
        <ele>763.42</ele>
        <time>2013-08-31T13:15:22Z</time>
      </trkpt>
      <trkpt lat="44.12304" lon="3.12346">
        <ele>763.9</ele>
        <time>2013-08-31T13:15:25Z</time>
      </trkpt>
      <trkpt lat="44.12321" lon="3.1234">
        <ele>764.39</ele>
        <time>2013-08-31T13:15:38Z</time>
      </trkpt>
      <trkpt lat="44.12325" lon="3.12339">
        <ele>764.39</ele>
        <time>2013-08-31T13:15:41Z</time>
      </trkpt>
      <trkpt lat="44.1234" lon="3.12337">
        <ele>765.35</ele>
        <time>2013-08-31T13:15:51Z</time>
      </trkpt>
      <trkpt lat="44.12358" lon="3.12324">
        <ele>765.35</ele>
        <time>2013-08-31T13:16:03Z</time>
      </trkpt>
      <trkpt lat="44.12371" lon="3.12321">
        <ele>765.35</ele>
        <time>2013-08-31T13:16:14Z</time>
      </trkpt>
      <trkpt lat="44.12389" lon="3.12324">
        <ele>765.83</ele>
        <time>2013-08-31T13:16:30Z</time>
      </trkpt>
      <trkpt lat="44.12406" lon="3.12322">
        <ele>765.83</ele>
        <time>2013-08-31T13:16:39Z</time>
      </trkpt>
      <trkpt lat="44.12425" lon="3.1233">
        <ele>766.31</ele>
        <time>2013-08-31T13:16:51Z</time>
      </trkpt>
      <trkpt lat="44.12429" lon="3.12329">
        <ele>766.79</ele>
        <time>2013-08-31T13:16:54Z</time>
      </trkpt>
      <trkpt lat="44.12446" lon="3.12327">
        <ele>767.75</ele>
        <time>2013-08-31T13:17:05Z</time>
      </trkpt>
      <trkpt lat="44.12461" lon="3.12326">
        <ele>767.27</ele>
        <time>2013-08-31T13:17:15Z</time>
      </trkpt>
      <trkpt lat="44.12474" lon="3.12326">
        <ele>766.79</ele>
        <time>2013-08-31T13:17:24Z</time>
      </trkpt>
      <trkpt lat="44.12487" lon="3.12327">
        <ele>765.83</ele>
        <time>2013-08-31T13:17:33Z</time>
      </trkpt>
      <trkpt lat="44.12504" lon="3.12324">
        <ele>764.87</ele>
        <time>2013-08-31T13:17:45Z</time>
      </trkpt>
      <trkpt lat="44.12523" lon="3.12322">
        <ele>763.42</ele>
        <time>2013-08-31T13:17:55Z</time>
      </trkpt>
      <trkpt lat="44.12543" lon="3.12314">
        <ele>761.5</ele>
        <time>2013-08-31T13:18:10Z</time>
      </trkpt>
      <trkpt lat="44.1255" lon="3.12309">
        <ele>761.02</ele>
        <time>2013-08-31T13:18:13Z</time>
      </trkpt>
      <trkpt lat="44.12556" lon="3.12308">
        <ele>761.02</ele>
        <time>2013-08-31T13:18:14Z</time>
      </trkpt>
      <trkpt lat="44.12581" lon="3.123">
        <ele>760.54</ele>
        <time>2013-08-31T13:18:27Z</time>
      </trkpt>
      <trkpt lat="44.12588" lon="3.12297">
        <ele>760.06</ele>
        <time>2013-08-31T13:18:31Z</time>
      </trkpt>
      <trkpt lat="44.12605" lon="3.12292">
        <ele>760.06</ele>
        <time>2013-08-31T13:18:42Z</time>
      </trkpt>
      <trkpt lat="44.1261" lon="3.12285">
        <ele>760.06</ele>
        <time>2013-08-31T13:18:46Z</time>
      </trkpt>
      <trkpt lat="44.12613" lon="3.12283">
        <ele>759.58</ele>
        <time>2013-08-31T13:18:48Z</time>
      </trkpt>
      <trkpt lat="44.12622" lon="3.12279">
        <ele>760.06</ele>
        <time>2013-08-31T13:18:54Z</time>
      </trkpt>
      <trkpt lat="44.12631" lon="3.12272">
        <ele>759.58</ele>
        <time>2013-08-31T13:19:00Z</time>
      </trkpt>
      <trkpt lat="44.12632" lon="3.1227">
        <ele>759.1</ele>
        <time>2013-08-31T13:19:01Z</time>
      </trkpt>
      <trkpt lat="44.12649" lon="3.12257">
        <ele>759.1</ele>
        <time>2013-08-31T13:19:13Z</time>
      </trkpt>
      <trkpt lat="44.12651" lon="3.12256">
        <ele>758.62</ele>
        <time>2013-08-31T13:19:14Z</time>
      </trkpt>
      <trkpt lat="44.12654" lon="3.12254">
        <ele>758.62</ele>
        <time>2013-08-31T13:19:16Z</time>
      </trkpt>
      <trkpt lat="44.12663" lon="3.12245">
        <ele>758.14</ele>
        <time>2013-08-31T13:19:25Z</time>
      </trkpt>
      <trkpt lat="44.12676" lon="3.12232">
        <ele>757.66</ele>
        <time>2013-08-31T13:19:37Z</time>
      </trkpt>
      <trkpt lat="44.12683" lon="3.12214">
        <ele>757.66</ele>
        <time>2013-08-31T13:19:48Z</time>
      </trkpt>
      <trkpt lat="44.12683" lon="3.12212">
        <ele>757.66</ele>
        <time>2013-08-31T13:19:49Z</time>
      </trkpt>
      <trkpt lat="44.12691" lon="3.1219">
        <ele>757.66</ele>
        <time>2013-08-31T13:20:00Z</time>
      </trkpt>
      <trkpt lat="44.12693" lon="3.12182">
        <ele>757.66</ele>
        <time>2013-08-31T13:20:04Z</time>
      </trkpt>
      <trkpt lat="44.12696" lon="3.12166">
        <ele>756.69</ele>
        <time>2013-08-31T13:20:13Z</time>
      </trkpt>
      <trkpt lat="44.12698" lon="3.12156">
        <ele>756.69</ele>
        <time>2013-08-31T13:20:18Z</time>
      </trkpt>
      <trkpt lat="44.127" lon="3.12143">
        <ele>756.21</ele>
        <time>2013-08-31T13:20:24Z</time>
      </trkpt>
      <trkpt lat="44.12705" lon="3.12131">
        <ele>754.77</ele>
        <time>2013-08-31T13:20:34Z</time>
      </trkpt>
      <trkpt lat="44.12708" lon="3.12125">
        <ele>754.29</ele>
        <time>2013-08-31T13:20:38Z</time>
      </trkpt>
      <trkpt lat="44.12722" lon="3.1211">
        <ele>753.81</ele>
        <time>2013-08-31T13:20:47Z</time>
      </trkpt>
      <trkpt lat="44.12733" lon="3.12096">
        <ele>752.37</ele>
        <time>2013-08-31T13:21:00Z</time>
      </trkpt>
      <trkpt lat="44.12743" lon="3.12087">
        <ele>752.37</ele>
        <time>2013-08-31T13:21:09Z</time>
      </trkpt>
      <trkpt lat="44.12756" lon="3.12075">
        <ele>750.93</ele>
        <time>2013-08-31T13:21:19Z</time>
      </trkpt>
      <trkpt lat="44.12761" lon="3.12072">
        <ele>750.45</ele>
        <time>2013-08-31T13:21:23Z</time>
      </trkpt>
      <trkpt lat="44.12766" lon="3.1207">
        <ele>750.45</ele>
        <time>2013-08-31T13:21:25Z</time>
      </trkpt>
      <trkpt lat="44.12776" lon="3.12053">
        <ele>749.49</ele>
        <time>2013-08-31T13:21:36Z</time>
      </trkpt>
      <trkpt lat="44.12786" lon="3.12047">
        <ele>749</ele>
        <time>2013-08-31T13:21:46Z</time>
      </trkpt>
      <trkpt lat="44.128" lon="3.12053">
        <ele>749</ele>
        <time>2013-08-31T13:21:57Z</time>
      </trkpt>
      <trkpt lat="44.12815" lon="3.12064">
        <ele>749.49</ele>
        <time>2013-08-31T13:22:09Z</time>
      </trkpt>
      <trkpt lat="44.12833" lon="3.12072">
        <ele>749</ele>
        <time>2013-08-31T13:22:18Z</time>
      </trkpt>
      <trkpt lat="44.12837" lon="3.12075">
        <ele>749</ele>
        <time>2013-08-31T13:22:22Z</time>
      </trkpt>
      <trkpt lat="44.12845" lon="3.12082">
        <ele>748.52</ele>
        <time>2013-08-31T13:22:28Z</time>
      </trkpt>
      <trkpt lat="44.12851" lon="3.12089">
        <ele>749</ele>
        <time>2013-08-31T13:22:38Z</time>
      </trkpt>
      <trkpt lat="44.12864" lon="3.12103">
        <ele>749</ele>
        <time>2013-08-31T13:22:51Z</time>
      </trkpt>
      <trkpt lat="44.12883" lon="3.12118">
        <ele>749.97</ele>
        <time>2013-08-31T13:23:05Z</time>
      </trkpt>
      <trkpt lat="44.12894" lon="3.12126">
        <ele>749.97</ele>
        <time>2013-08-31T13:23:13Z</time>
      </trkpt>
      <trkpt lat="44.12912" lon="3.1214">
        <ele>749.97</ele>
        <time>2013-08-31T13:23:25Z</time>
      </trkpt>
      <trkpt lat="44.12914" lon="3.12142">
        <ele>749.97</ele>
        <time>2013-08-31T13:23:27Z</time>
      </trkpt>
      <trkpt lat="44.12936" lon="3.12158">
        <ele>750.45</ele>
        <time>2013-08-31T13:23:40Z</time>
      </trkpt>
      <trkpt lat="44.12954" lon="3.12174">
        <ele>751.41</ele>
        <time>2013-08-31T13:23:53Z</time>
      </trkpt>
      <trkpt lat="44.12965" lon="3.12187">
        <ele>751.41</ele>
        <time>2013-08-31T13:24:05Z</time>
      </trkpt>
      <trkpt lat="44.1298" lon="3.12202">
        <ele>751.89</ele>
        <time>2013-08-31T13:24:18Z</time>
      </trkpt>
      <trkpt lat="44.12986" lon="3.12208">
        <ele>752.37</ele>
        <time>2013-08-31T13:24:23Z</time>
      </trkpt>
      <trkpt lat="44.12995" lon="3.1223">
        <ele>753.33</ele>
        <time>2013-08-31T13:24:35Z</time>
      </trkpt>
      <trkpt lat="44.13009" lon="3.12244">
        <ele>754.29</ele>
        <time>2013-08-31T13:24:44Z</time>
      </trkpt>
      <trkpt lat="44.13011" lon="3.12244">
        <ele>754.29</ele>
        <time>2013-08-31T13:24:45Z</time>
      </trkpt>
      <trkpt lat="44.13023" lon="3.1225">
        <ele>754.77</ele>
        <time>2013-08-31T13:24:51Z</time>
      </trkpt>
      <trkpt lat="44.1303" lon="3.12252">
        <ele>754.77</ele>
        <time>2013-08-31T13:24:54Z</time>
      </trkpt>
      <trkpt lat="44.13053" lon="3.12261">
        <ele>756.21</ele>
        <time>2013-08-31T13:25:07Z</time>
      </trkpt>
      <trkpt lat="44.1307" lon="3.12268">
        <ele>757.18</ele>
        <time>2013-08-31T13:25:16Z</time>
      </trkpt>
      <trkpt lat="44.13084" lon="3.12276">
        <ele>758.14</ele>
        <time>2013-08-31T13:25:25Z</time>
      </trkpt>
      <trkpt lat="44.13085" lon="3.12276">
        <ele>758.62</ele>
        <time>2013-08-31T13:25:26Z</time>
      </trkpt>
      <trkpt lat="44.13108" lon="3.12283">
        <ele>758.62</ele>
        <time>2013-08-31T13:25:40Z</time>
      </trkpt>
      <trkpt lat="44.13125" lon="3.12297">
        <ele>761.02</ele>
        <time>2013-08-31T13:25:57Z</time>
      </trkpt>
      <trkpt lat="44.13142" lon="3.12315">
        <ele>761.98</ele>
        <time>2013-08-31T13:26:12Z</time>
      </trkpt>
      <trkpt lat="44.13151" lon="3.12319">
        <ele>762.46</ele>
        <time>2013-08-31T13:26:19Z</time>
      </trkpt>
      <trkpt lat="44.1316" lon="3.12324">
        <ele>762.94</ele>
        <time>2013-08-31T13:26:25Z</time>
      </trkpt>
      <trkpt lat="44.13184" lon="3.12334">
        <ele>763.42</ele>
        <time>2013-08-31T13:26:40Z</time>
      </trkpt>
      <trkpt lat="44.13206" lon="3.12348">
        <ele>763.42</ele>
        <time>2013-08-31T13:26:52Z</time>
      </trkpt>
      <trkpt lat="44.13223" lon="3.12358">
        <ele>763.42</ele>
        <time>2013-08-31T13:27:06Z</time>
      </trkpt>
      <trkpt lat="44.13232" lon="3.12361">
        <ele>763.42</ele>
        <time>2013-08-31T13:27:12Z</time>
      </trkpt>
      <trkpt lat="44.13259" lon="3.12368">
        <ele>763.42</ele>
        <time>2013-08-31T13:27:28Z</time>
      </trkpt>
      <trkpt lat="44.13273" lon="3.12367">
        <ele>762.46</ele>
        <time>2013-08-31T13:27:41Z</time>
      </trkpt>
      <trkpt lat="44.1329" lon="3.12368">
        <ele>762.94</ele>
        <time>2013-08-31T13:27:54Z</time>
      </trkpt>
      <trkpt lat="44.13311" lon="3.12367">
        <ele>763.9</ele>
        <time>2013-08-31T13:28:08Z</time>
      </trkpt>
      <trkpt lat="44.13329" lon="3.12372">
        <ele>764.39</ele>
        <time>2013-08-31T13:28:22Z</time>
      </trkpt>
      <trkpt lat="44.13351" lon="3.12365">
        <ele>763.42</ele>
        <time>2013-08-31T13:28:35Z</time>
      </trkpt>
      <trkpt lat="44.13365" lon="3.12359">
        <ele>763.9</ele>
        <time>2013-08-31T13:28:48Z</time>
      </trkpt>
      <trkpt lat="44.13376" lon="3.12356">
        <ele>763.9</ele>
        <time>2013-08-31T13:28:55Z</time>
      </trkpt>
      <trkpt lat="44.13398" lon="3.12357">
        <ele>764.39</ele>
        <time>2013-08-31T13:29:08Z</time>
      </trkpt>
      <trkpt lat="44.13409" lon="3.12359">
        <ele>763.9</ele>
        <time>2013-08-31T13:29:28Z</time>
      </trkpt>
      <trkpt lat="44.13422" lon="3.12365">
        <ele>763.42</ele>
        <time>2013-08-31T13:29:40Z</time>
      </trkpt>
      <trkpt lat="44.13412" lon="3.12382">
        <ele>763.42</ele>
        <time>2013-08-31T13:29:53Z</time>
      </trkpt>
      <trkpt lat="44.13411" lon="3.12403">
        <ele>763.9</ele>
        <time>2013-08-31T13:30:06Z</time>
      </trkpt>
      <trkpt lat="44.13409" lon="3.12433">
        <ele>764.87</ele>
        <time>2013-08-31T13:30:20Z</time>
      </trkpt>
      <trkpt lat="44.1341" lon="3.12455">
        <ele>765.35</ele>
        <time>2013-08-31T13:30:32Z</time>
      </trkpt>
      <trkpt lat="44.1341" lon="3.12493">
        <ele>766.31</ele>
        <time>2013-08-31T13:30:47Z</time>
      </trkpt>
      <trkpt lat="44.13409" lon="3.12498">
        <ele>766.79</ele>
        <time>2013-08-31T13:30:50Z</time>
      </trkpt>
      <trkpt lat="44.13404" lon="3.12518">
        <ele>766.31</ele>
        <time>2013-08-31T13:31:02Z</time>
      </trkpt>
      <trkpt lat="44.13389" lon="3.12547">
        <ele>765.83</ele>
        <time>2013-08-31T13:31:18Z</time>
      </trkpt>
      <trkpt lat="44.13381" lon="3.12574">
        <ele>765.83</ele>
        <time>2013-08-31T13:31:32Z</time>
      </trkpt>
      <trkpt lat="44.13378" lon="3.12598">
        <ele>765.83</ele>
        <time>2013-08-31T13:31:45Z</time>
      </trkpt>
      <trkpt lat="44.13378" lon="3.12623">
        <ele>765.83</ele>
        <time>2013-08-31T13:31:58Z</time>
      </trkpt>
      <trkpt lat="44.13378" lon="3.12647">
        <ele>765.35</ele>
        <time>2013-08-31T13:32:12Z</time>
      </trkpt>
      <trkpt lat="44.1337" lon="3.12682">
        <ele>764.87</ele>
        <time>2013-08-31T13:32:27Z</time>
      </trkpt>
      <trkpt lat="44.1337" lon="3.12708">
        <ele>764.39</ele>
        <time>2013-08-31T13:32:39Z</time>
      </trkpt>
      <trkpt lat="44.13369" lon="3.1274">
        <ele>764.87</ele>
        <time>2013-08-31T13:32:54Z</time>
      </trkpt>
      <trkpt lat="44.13368" lon="3.12757">
        <ele>765.35</ele>
        <time>2013-08-31T13:33:01Z</time>
      </trkpt>
      <trkpt lat="44.13364" lon="3.12773">
        <ele>765.35</ele>
        <time>2013-08-31T13:33:07Z</time>
      </trkpt>
      <trkpt lat="44.13365" lon="3.12803">
        <ele>765.83</ele>
        <time>2013-08-31T13:33:23Z</time>
      </trkpt>
      <trkpt lat="44.1337" lon="3.12831">
        <ele>766.31</ele>
        <time>2013-08-31T13:33:37Z</time>
      </trkpt>
      <trkpt lat="44.13374" lon="3.12854">
        <ele>766.79</ele>
        <time>2013-08-31T13:33:49Z</time>
      </trkpt>
      <trkpt lat="44.13383" lon="3.12878">
        <ele>766.31</ele>
        <time>2013-08-31T13:34:03Z</time>
      </trkpt>
      <trkpt lat="44.13384" lon="3.1291">
        <ele>765.35</ele>
        <time>2013-08-31T13:34:16Z</time>
      </trkpt>
      <trkpt lat="44.1338" lon="3.12942">
        <ele>765.35</ele>
        <time>2013-08-31T13:34:30Z</time>
      </trkpt>
      <trkpt lat="44.1338" lon="3.12951">
        <ele>765.35</ele>
        <time>2013-08-31T13:34:34Z</time>
      </trkpt>
      <trkpt lat="44.13376" lon="3.12987">
        <ele>766.31</ele>
        <time>2013-08-31T13:34:50Z</time>
      </trkpt>
      <trkpt lat="44.13372" lon="3.13019">
        <ele>766.31</ele>
        <time>2013-08-31T13:35:04Z</time>
      </trkpt>
      <trkpt lat="44.13371" lon="3.13029">
        <ele>766.31</ele>
        <time>2013-08-31T13:35:08Z</time>
      </trkpt>
      <trkpt lat="44.13372" lon="3.13037">
        <ele>765.83</ele>
        <time>2013-08-31T13:35:14Z</time>
      </trkpt>
      <trkpt lat="44.13367" lon="3.13071">
        <ele>765.83</ele>
        <time>2013-08-31T13:35:28Z</time>
      </trkpt>
      <trkpt lat="44.13371" lon="3.13089">
        <ele>765.83</ele>
        <time>2013-08-31T13:35:43Z</time>
      </trkpt>
      <trkpt lat="44.13367" lon="3.13117">
        <ele>765.83</ele>
        <time>2013-08-31T13:35:59Z</time>
      </trkpt>
      <trkpt lat="44.13363" lon="3.13149">
        <ele>764.87</ele>
        <time>2013-08-31T13:36:12Z</time>
      </trkpt>
      <trkpt lat="44.1336" lon="3.13186">
        <ele>763.42</ele>
        <time>2013-08-31T13:36:29Z</time>
      </trkpt>
      <trkpt lat="44.13362" lon="3.13221">
        <ele>762.94</ele>
        <time>2013-08-31T13:36:46Z</time>
      </trkpt>
      <trkpt lat="44.13369" lon="3.13248">
        <ele>763.42</ele>
        <time>2013-08-31T13:37:21Z</time>
      </trkpt>
      <trkpt lat="44.13369" lon="3.13285">
        <ele>760.06</ele>
        <time>2013-08-31T13:37:40Z</time>
      </trkpt>
      <trkpt lat="44.13372" lon="3.1332">
        <ele>757.66</ele>
        <time>2013-08-31T13:37:55Z</time>
      </trkpt>
      <trkpt lat="44.13382" lon="3.13345">
        <ele>755.73</ele>
        <time>2013-08-31T13:38:08Z</time>
      </trkpt>
      <trkpt lat="44.13388" lon="3.13367">
        <ele>753.33</ele>
        <time>2013-08-31T13:38:20Z</time>
      </trkpt>
      <trkpt lat="44.13394" lon="3.13386">
        <ele>751.41</ele>
        <time>2013-08-31T13:38:30Z</time>
      </trkpt>
      <trkpt lat="44.13399" lon="3.13395">
        <ele>751.41</ele>
        <time>2013-08-31T13:38:35Z</time>
      </trkpt>
      <trkpt lat="44.13405" lon="3.13406">
        <ele>751.41</ele>
        <time>2013-08-31T13:38:41Z</time>
      </trkpt>
      <trkpt lat="44.13408" lon="3.13441">
        <ele>751.41</ele>
        <time>2013-08-31T13:38:55Z</time>
      </trkpt>
      <trkpt lat="44.13416" lon="3.1346">
        <ele>751.89</ele>
        <time>2013-08-31T13:39:04Z</time>
      </trkpt>
      <trkpt lat="44.13432" lon="3.13474">
        <ele>752.37</ele>
        <time>2013-08-31T13:39:16Z</time>
      </trkpt>
      <trkpt lat="44.1344" lon="3.1348">
        <ele>753.33</ele>
        <time>2013-08-31T13:39:24Z</time>
      </trkpt>
      <trkpt lat="44.13458" lon="3.1349">
        <ele>753.33</ele>
        <time>2013-08-31T13:39:36Z</time>
      </trkpt>
      <trkpt lat="44.13481" lon="3.13498">
        <ele>753.81</ele>
        <time>2013-08-31T13:39:50Z</time>
      </trkpt>
      <trkpt lat="44.13488" lon="3.13497">
        <ele>753.81</ele>
        <time>2013-08-31T13:39:58Z</time>
      </trkpt>
      <trkpt lat="44.1352" lon="3.13493">
        <ele>754.77</ele>
        <time>2013-08-31T13:40:12Z</time>
      </trkpt>
      <trkpt lat="44.13538" lon="3.1349">
        <ele>755.25</ele>
        <time>2013-08-31T13:40:28Z</time>
      </trkpt>
      <trkpt lat="44.13543" lon="3.13491">
        <ele>755.73</ele>
        <time>2013-08-31T13:40:32Z</time>
      </trkpt>
      <trkpt lat="44.13557" lon="3.13488">
        <ele>757.18</ele>
        <time>2013-08-31T13:40:41Z</time>
      </trkpt>
      <trkpt lat="44.13564" lon="3.13484">
        <ele>757.18</ele>
        <time>2013-08-31T13:40:46Z</time>
      </trkpt>
      <trkpt lat="44.13571" lon="3.1348">
        <ele>757.66</ele>
        <time>2013-08-31T13:40:50Z</time>
      </trkpt>
      <trkpt lat="44.13591" lon="3.13468">
        <ele>759.58</ele>
        <time>2013-08-31T13:41:03Z</time>
      </trkpt>
      <trkpt lat="44.13606" lon="3.13458">
        <ele>759.58</ele>
        <time>2013-08-31T13:41:11Z</time>
      </trkpt>
      <trkpt lat="44.13625" lon="3.13443">
        <ele>761.98</ele>
        <time>2013-08-31T13:41:24Z</time>
      </trkpt>
      <trkpt lat="44.13642" lon="3.1343">
        <ele>763.42</ele>
        <time>2013-08-31T13:41:36Z</time>
      </trkpt>
      <trkpt lat="44.13652" lon="3.13417">
        <ele>764.39</ele>
        <time>2013-08-31T13:41:46Z</time>
      </trkpt>
      <trkpt lat="44.13664" lon="3.1341">
        <ele>765.35</ele>
        <time>2013-08-31T13:41:53Z</time>
      </trkpt>
      <trkpt lat="44.13673" lon="3.13398">
        <ele>766.79</ele>
        <time>2013-08-31T13:42:04Z</time>
      </trkpt>
      <trkpt lat="44.13695" lon="3.13383">
        <ele>768.71</ele>
        <time>2013-08-31T13:42:20Z</time>
      </trkpt>
      <trkpt lat="44.13703" lon="3.13379">
        <ele>769.19</ele>
        <time>2013-08-31T13:42:25Z</time>
      </trkpt>
      <trkpt lat="44.13723" lon="3.13367">
        <ele>771.11</ele>
        <time>2013-08-31T13:42:38Z</time>
      </trkpt>
      <trkpt lat="44.1374" lon="3.13358">
        <ele>772.56</ele>
        <time>2013-08-31T13:42:50Z</time>
      </trkpt>
      <trkpt lat="44.13748" lon="3.13352">
        <ele>773.52</ele>
        <time>2013-08-31T13:42:56Z</time>
      </trkpt>
      <trkpt lat="44.13764" lon="3.1334">
        <ele>775.44</ele>
        <time>2013-08-31T13:43:10Z</time>
      </trkpt>
      <trkpt lat="44.13772" lon="3.13337">
        <ele>775.44</ele>
        <time>2013-08-31T13:43:14Z</time>
      </trkpt>
      <trkpt lat="44.13789" lon="3.13322">
        <ele>777.84</ele>
        <time>2013-08-31T13:43:27Z</time>
      </trkpt>
      <trkpt lat="44.13792" lon="3.13318">
        <ele>778.32</ele>
        <time>2013-08-31T13:43:30Z</time>
      </trkpt>
      <trkpt lat="44.13804" lon="3.13302">
        <ele>779.77</ele>
        <time>2013-08-31T13:43:43Z</time>
      </trkpt>
      <trkpt lat="44.13807" lon="3.13299">
        <ele>780.25</ele>
        <time>2013-08-31T13:43:45Z</time>
      </trkpt>
      <trkpt lat="44.13824" lon="3.13288">
        <ele>782.17</ele>
        <time>2013-08-31T13:43:54Z</time>
      </trkpt>
      <trkpt lat="44.13831" lon="3.13285">
        <ele>781.69</ele>
        <time>2013-08-31T13:43:57Z</time>
      </trkpt>
      <trkpt lat="44.13835" lon="3.13276">
        <ele>783.13</ele>
        <time>2013-08-31T13:44:02Z</time>
      </trkpt>
      <trkpt lat="44.13837" lon="3.13272">
        <ele>783.13</ele>
        <time>2013-08-31T13:44:04Z</time>
      </trkpt>
      <trkpt lat="44.13849" lon="3.13266">
        <ele>783.61</ele>
        <time>2013-08-31T13:44:09Z</time>
      </trkpt>
      <trkpt lat="44.13849" lon="3.13252">
        <ele>784.57</ele>
        <time>2013-08-31T13:44:15Z</time>
      </trkpt>
      <trkpt lat="44.13846" lon="3.1323">
        <ele>785.53</ele>
        <time>2013-08-31T13:44:26Z</time>
      </trkpt>
      <trkpt lat="44.13845" lon="3.13225">
        <ele>785.53</ele>
        <time>2013-08-31T13:44:29Z</time>
      </trkpt>
      <trkpt lat="44.13848" lon="3.13219">
        <ele>785.53</ele>
        <time>2013-08-31T13:44:32Z</time>
      </trkpt>
      <trkpt lat="44.13854" lon="3.13206">
        <ele>786.5</ele>
        <time>2013-08-31T13:44:41Z</time>
      </trkpt>
      <trkpt lat="44.13856" lon="3.13199">
        <ele>786.5</ele>
        <time>2013-08-31T13:44:46Z</time>
      </trkpt>
      <trkpt lat="44.13857" lon="3.13195">
        <ele>786.98</ele>
        <time>2013-08-31T13:44:48Z</time>
      </trkpt>
      <trkpt lat="44.13862" lon="3.13186">
        <ele>786.98</ele>
        <time>2013-08-31T13:44:56Z</time>
      </trkpt>
      <trkpt lat="44.13868" lon="3.13172">
        <ele>786.02</ele>
        <time>2013-08-31T13:45:07Z</time>
      </trkpt>
      <trkpt lat="44.13873" lon="3.13164">
        <ele>786.98</ele>
        <time>2013-08-31T13:45:13Z</time>
      </trkpt>
      <trkpt lat="44.13872" lon="3.13144">
        <ele>786.98</ele>
        <time>2013-08-31T13:45:22Z</time>
      </trkpt>
      <trkpt lat="44.13871" lon="3.13137">
        <ele>787.46</ele>
        <time>2013-08-31T13:45:25Z</time>
      </trkpt>
      <trkpt lat="44.13869" lon="3.13107">
        <ele>786.5</ele>
        <time>2013-08-31T13:45:40Z</time>
      </trkpt>
      <trkpt lat="44.13868" lon="3.13082">
        <ele>786.02</ele>
        <time>2013-08-31T13:45:52Z</time>
      </trkpt>
      <trkpt lat="44.13871" lon="3.13074">
        <ele>785.05</ele>
        <time>2013-08-31T13:45:56Z</time>
      </trkpt>
      <trkpt lat="44.13869" lon="3.13062">
        <ele>784.57</ele>
        <time>2013-08-31T13:46:01Z</time>
      </trkpt>
      <trkpt lat="44.13867" lon="3.13028">
        <ele>784.09</ele>
        <time>2013-08-31T13:46:16Z</time>
      </trkpt>
      <trkpt lat="44.13866" lon="3.12987">
        <ele>782.65</ele>
        <time>2013-08-31T13:46:34Z</time>
      </trkpt>
      <trkpt lat="44.13866" lon="3.12985">
        <ele>782.65</ele>
        <time>2013-08-31T13:46:35Z</time>
      </trkpt>
      <trkpt lat="44.13865" lon="3.12977">
        <ele>782.17</ele>
        <time>2013-08-31T13:46:39Z</time>
      </trkpt>
      <trkpt lat="44.13865" lon="3.12965">
        <ele>782.17</ele>
        <time>2013-08-31T13:46:44Z</time>
      </trkpt>
      <trkpt lat="44.13866" lon="3.12962">
        <ele>782.17</ele>
        <time>2013-08-31T13:46:46Z</time>
      </trkpt>
      <trkpt lat="44.13867" lon="3.12953">
        <ele>781.69</ele>
        <time>2013-08-31T13:46:50Z</time>
      </trkpt>
      <trkpt lat="44.13866" lon="3.1292">
        <ele>780.73</ele>
        <time>2013-08-31T13:47:04Z</time>
      </trkpt>
      <trkpt lat="44.13866" lon="3.12909">
        <ele>780.25</ele>
        <time>2013-08-31T13:47:09Z</time>
      </trkpt>
      <trkpt lat="44.13865" lon="3.12887">
        <ele>781.69</ele>
        <time>2013-08-31T13:47:19Z</time>
      </trkpt>
      <trkpt lat="44.13861" lon="3.1288">
        <ele>781.69</ele>
        <time>2013-08-31T13:47:22Z</time>
      </trkpt>
      <trkpt lat="44.13847" lon="3.12858">
        <ele>782.65</ele>
        <time>2013-08-31T13:47:37Z</time>
      </trkpt>
      <trkpt lat="44.13845" lon="3.12857">
        <ele>782.65</ele>
        <time>2013-08-31T13:47:38Z</time>
      </trkpt>
      <trkpt lat="44.13839" lon="3.12854">
        <ele>783.61</ele>
        <time>2013-08-31T13:47:43Z</time>
      </trkpt>
      <trkpt lat="44.13822" lon="3.12842">
        <ele>785.05</ele>
        <time>2013-08-31T13:47:57Z</time>
      </trkpt>
      <trkpt lat="44.13805" lon="3.12826">
        <ele>787.94</ele>
        <time>2013-08-31T13:48:12Z</time>
      </trkpt>
      <trkpt lat="44.13784" lon="3.12808">
        <ele>788.9</ele>
        <time>2013-08-31T13:48:27Z</time>
      </trkpt>
      <trkpt lat="44.13782" lon="3.12806">
        <ele>789.86</ele>
        <time>2013-08-31T13:48:30Z</time>
      </trkpt>
      <trkpt lat="44.1378" lon="3.12804">
        <ele>790.34</ele>
        <time>2013-08-31T13:48:32Z</time>
      </trkpt>
      <trkpt lat="44.13765" lon="3.12793">
        <ele>791.3</ele>
        <time>2013-08-31T13:48:42Z</time>
      </trkpt>
      <trkpt lat="44.1374" lon="3.12778">
        <ele>793.22</ele>
        <time>2013-08-31T13:48:58Z</time>
      </trkpt>
      <trkpt lat="44.13711" lon="3.12773">
        <ele>795.63</ele>
        <time>2013-08-31T13:49:15Z</time>
      </trkpt>
      <trkpt lat="44.13687" lon="3.1277">
        <ele>796.11</ele>
        <time>2013-08-31T13:49:30Z</time>
      </trkpt>
      <trkpt lat="44.13664" lon="3.12766">
        <ele>798.51</ele>
        <time>2013-08-31T13:49:45Z</time>
      </trkpt>
      <trkpt lat="44.13638" lon="3.12763">
        <ele>799.47</ele>
        <time>2013-08-31T13:50:02Z</time>
      </trkpt>
      <trkpt lat="44.13604" lon="3.12753">
        <ele>802.36</ele>
        <time>2013-08-31T13:50:23Z</time>
      </trkpt>
      <trkpt lat="44.13578" lon="3.12739">
        <ele>804.28</ele>
        <time>2013-08-31T13:50:42Z</time>
      </trkpt>
      <trkpt lat="44.13557" lon="3.12722">
        <ele>804.28</ele>
        <time>2013-08-31T13:50:59Z</time>
      </trkpt>
      <trkpt lat="44.13541" lon="3.12704">
        <ele>804.76</ele>
        <time>2013-08-31T13:51:13Z</time>
      </trkpt>
      <trkpt lat="44.13529" lon="3.12683">
        <ele>805.24</ele>
        <time>2013-08-31T13:51:28Z</time>
      </trkpt>
      <trkpt lat="44.1352" lon="3.12669">
        <ele>804.28</ele>
        <time>2013-08-31T13:51:40Z</time>
      </trkpt>
      <trkpt lat="44.13513" lon="3.12658">
        <ele>804.76</ele>
        <time>2013-08-31T13:51:49Z</time>
      </trkpt>
      <trkpt lat="44.13493" lon="3.12641">
        <ele>803.8</ele>
        <time>2013-08-31T13:52:04Z</time>
      </trkpt>
      <trkpt lat="44.13475" lon="3.12621">
        <ele>803.32</ele>
        <time>2013-08-31T13:52:18Z</time>
      </trkpt>
      <trkpt lat="44.13468" lon="3.12611">
        <ele>802.84</ele>
        <time>2013-08-31T13:52:25Z</time>
      </trkpt>
      <trkpt lat="44.13461" lon="3.12588">
        <ele>802.36</ele>
        <time>2013-08-31T13:52:36Z</time>
      </trkpt>
      <trkpt lat="44.13453" lon="3.12558">
        <ele>801.4</ele>
        <time>2013-08-31T13:52:51Z</time>
      </trkpt>
      <trkpt lat="44.13452" lon="3.12555">
        <ele>801.4</ele>
        <time>2013-08-31T13:52:53Z</time>
      </trkpt>
      <trkpt lat="44.13447" lon="3.1253">
        <ele>800.44</ele>
        <time>2013-08-31T13:53:05Z</time>
      </trkpt>
      <trkpt lat="44.13447" lon="3.12502">
        <ele>798.99</ele>
        <time>2013-08-31T13:53:19Z</time>
      </trkpt>
      <trkpt lat="44.13455" lon="3.12472">
        <ele>797.55</ele>
        <time>2013-08-31T13:53:34Z</time>
      </trkpt>
      <trkpt lat="44.13457" lon="3.12466">
        <ele>798.03</ele>
        <time>2013-08-31T13:53:37Z</time>
      </trkpt>
      <trkpt lat="44.13459" lon="3.12454">
        <ele>797.55</ele>
        <time>2013-08-31T13:53:43Z</time>
      </trkpt>
      <trkpt lat="44.13459" lon="3.12448">
        <ele>797.55</ele>
        <time>2013-08-31T13:53:46Z</time>
      </trkpt>
      <trkpt lat="44.13458" lon="3.12434">
        <ele>797.07</ele>
        <time>2013-08-31T13:53:52Z</time>
      </trkpt>
      <trkpt lat="44.13458" lon="3.12433">
        <ele>797.07</ele>
        <time>2013-08-31T13:53:53Z</time>
      </trkpt>
      <trkpt lat="44.13457" lon="3.12392">
        <ele>796.11</ele>
        <time>2013-08-31T13:54:13Z</time>
      </trkpt>
      <trkpt lat="44.13447" lon="3.12376">
        <ele>795.15</ele>
        <time>2013-08-31T13:54:24Z</time>
      </trkpt>
      <trkpt lat="44.13421" lon="3.12359">
        <ele>795.15</ele>
        <time>2013-08-31T13:54:40Z</time>
      </trkpt>
      <trkpt lat="44.13411" lon="3.12357">
        <ele>795.63</ele>
        <time>2013-08-31T13:54:55Z</time>
      </trkpt>
      <trkpt lat="44.13411" lon="3.12361">
        <ele>795.63</ele>
        <time>2013-08-31T13:55:11Z</time>
      </trkpt>
      <trkpt lat="44.13409" lon="3.12371">
        <ele>795.63</ele>
        <time>2013-08-31T13:55:40Z</time>
      </trkpt>
      <trkpt lat="44.13404" lon="3.1237">
        <ele>796.11</ele>
        <time>2013-08-31T13:55:46Z</time>
      </trkpt>
      <trkpt lat="44.13384" lon="3.12368">
        <ele>796.59</ele>
        <time>2013-08-31T13:56:00Z</time>
      </trkpt>
      <trkpt lat="44.13374" lon="3.1237">
        <ele>797.07</ele>
        <time>2013-08-31T13:56:08Z</time>
      </trkpt>
      <trkpt lat="44.13368" lon="3.12373">
        <ele>797.07</ele>
        <time>2013-08-31T13:56:12Z</time>
      </trkpt>
      <trkpt lat="44.13344" lon="3.12373">
        <ele>797.07</ele>
        <time>2013-08-31T13:56:27Z</time>
      </trkpt>
      <trkpt lat="44.13324" lon="3.1237">
        <ele>796.59</ele>
        <time>2013-08-31T13:56:42Z</time>
      </trkpt>
      <trkpt lat="44.13304" lon="3.12371">
        <ele>796.59</ele>
        <time>2013-08-31T13:56:55Z</time>
      </trkpt>
      <trkpt lat="44.13282" lon="3.12373">
        <ele>797.07</ele>
        <time>2013-08-31T13:57:09Z</time>
      </trkpt>
      <trkpt lat="44.13261" lon="3.12369">
        <ele>797.07</ele>
        <time>2013-08-31T13:57:21Z</time>
      </trkpt>
      <trkpt lat="44.13254" lon="3.12366">
        <ele>797.07</ele>
        <time>2013-08-31T13:57:27Z</time>
      </trkpt>
      <trkpt lat="44.13248" lon="3.12365">
        <ele>797.07</ele>
        <time>2013-08-31T13:57:31Z</time>
      </trkpt>
      <trkpt lat="44.13227" lon="3.12353">
        <ele>797.55</ele>
        <time>2013-08-31T13:57:47Z</time>
      </trkpt>
      <trkpt lat="44.13225" lon="3.12352">
        <ele>797.55</ele>
        <time>2013-08-31T13:57:48Z</time>
      </trkpt>
      <trkpt lat="44.13203" lon="3.12338">
        <ele>796.59</ele>
        <time>2013-08-31T13:58:05Z</time>
      </trkpt>
      <trkpt lat="44.13176" lon="3.12322">
        <ele>796.11</ele>
        <time>2013-08-31T13:58:25Z</time>
      </trkpt>
      <trkpt lat="44.13175" lon="3.12322">
        <ele>796.11</ele>
        <time>2013-08-31T13:58:26Z</time>
      </trkpt>
      <trkpt lat="44.13163" lon="3.12312">
        <ele>796.11</ele>
        <time>2013-08-31T13:58:34Z</time>
      </trkpt>
      <trkpt lat="44.13151" lon="3.12305">
        <ele>794.67</ele>
        <time>2013-08-31T13:58:47Z</time>
      </trkpt>
      <trkpt lat="44.13132" lon="3.12291">
        <ele>793.22</ele>
        <time>2013-08-31T13:59:01Z</time>
      </trkpt>
      <trkpt lat="44.13126" lon="3.12288">
        <ele>792.26</ele>
        <time>2013-08-31T13:59:05Z</time>
      </trkpt>
      <trkpt lat="44.13103" lon="3.12274">
        <ele>791.78</ele>
        <time>2013-08-31T13:59:13Z</time>
      </trkpt>
      <trkpt lat="44.13083" lon="3.12269">
        <ele>790.82</ele>
        <time>2013-08-31T13:59:26Z</time>
      </trkpt>
      <trkpt lat="44.13061" lon="3.12263">
        <ele>790.34</ele>
        <time>2013-08-31T13:59:41Z</time>
      </trkpt>
      <trkpt lat="44.1305" lon="3.12254">
        <ele>789.38</ele>
        <time>2013-08-31T13:59:53Z</time>
      </trkpt>
      <trkpt lat="44.13037" lon="3.12235">
        <ele>787.94</ele>
        <time>2013-08-31T14:00:09Z</time>
      </trkpt>
      <trkpt lat="44.13024" lon="3.12215">
        <ele>787.46</ele>
        <time>2013-08-31T14:00:22Z</time>
      </trkpt>
      <trkpt lat="44.13006" lon="3.12194">
        <ele>787.46</ele>
        <time>2013-08-31T14:00:36Z</time>
      </trkpt>
      <trkpt lat="44.12981" lon="3.12175">
        <ele>786.5</ele>
        <time>2013-08-31T14:00:51Z</time>
      </trkpt>
      <trkpt lat="44.12945" lon="3.12148">
        <ele>787.46</ele>
        <time>2013-08-31T14:01:07Z</time>
      </trkpt>
      <trkpt lat="44.1294" lon="3.12145">
        <ele>787.46</ele>
        <time>2013-08-31T14:01:10Z</time>
      </trkpt>
      <trkpt lat="44.12934" lon="3.12142">
        <ele>786.98</ele>
        <time>2013-08-31T14:01:21Z</time>
      </trkpt>
      <trkpt lat="44.12934" lon="3.12141">
        <ele>786.98</ele>
        <time>2013-08-31T14:01:23Z</time>
      </trkpt>
      <trkpt lat="44.1293" lon="3.12137">
        <ele>786.98</ele>
        <time>2013-08-31T14:01:34Z</time>
      </trkpt>
      <trkpt lat="44.1293" lon="3.12133">
        <ele>787.46</ele>
        <time>2013-08-31T14:01:51Z</time>
      </trkpt>
      <trkpt lat="44.1292" lon="3.12128">
        <ele>787.46</ele>
        <time>2013-08-31T14:02:11Z</time>
      </trkpt>
      <trkpt lat="44.12904" lon="3.12117">
        <ele>786.98</ele>
        <time>2013-08-31T14:02:23Z</time>
      </trkpt>
      <trkpt lat="44.12885" lon="3.12103">
        <ele>787.46</ele>
        <time>2013-08-31T14:02:36Z</time>
      </trkpt>
      <trkpt lat="44.12862" lon="3.12085">
        <ele>786.98</ele>
        <time>2013-08-31T14:02:50Z</time>
      </trkpt>
      <trkpt lat="44.12841" lon="3.12069">
        <ele>787.94</ele>
        <time>2013-08-31T14:03:04Z</time>
      </trkpt>
      <trkpt lat="44.12822" lon="3.12053">
        <ele>788.42</ele>
        <time>2013-08-31T14:03:17Z</time>
      </trkpt>
      <trkpt lat="44.12806" lon="3.12042">
        <ele>787.94</ele>
        <time>2013-08-31T14:03:28Z</time>
      </trkpt>
      <trkpt lat="44.12787" lon="3.12031">
        <ele>787.94</ele>
        <time>2013-08-31T14:03:40Z</time>
      </trkpt>
      <trkpt lat="44.12781" lon="3.12028">
        <ele>787.46</ele>
        <time>2013-08-31T14:03:45Z</time>
      </trkpt>
      <trkpt lat="44.12759" lon="3.12019">
        <ele>786.98</ele>
        <time>2013-08-31T14:03:58Z</time>
      </trkpt>
      <trkpt lat="44.12738" lon="3.12012">
        <ele>786.02</ele>
        <time>2013-08-31T14:04:10Z</time>
      </trkpt>
      <trkpt lat="44.12735" lon="3.12012">
        <ele>786.02</ele>
        <time>2013-08-31T14:04:12Z</time>
      </trkpt>
      <trkpt lat="44.12708" lon="3.12002">
        <ele>786.02</ele>
        <time>2013-08-31T14:04:29Z</time>
      </trkpt>
      <trkpt lat="44.12704" lon="3.12001">
        <ele>786.02</ele>
        <time>2013-08-31T14:04:31Z</time>
      </trkpt>
      <trkpt lat="44.12681" lon="3.11991">
        <ele>785.53</ele>
        <time>2013-08-31T14:04:46Z</time>
      </trkpt>
      <trkpt lat="44.1266" lon="3.11978">
        <ele>785.53</ele>
        <time>2013-08-31T14:05:00Z</time>
      </trkpt>
      <trkpt lat="44.12645" lon="3.11968">
        <ele>786.02</ele>
        <time>2013-08-31T14:05:12Z</time>
      </trkpt>
      <trkpt lat="44.12637" lon="3.11963">
        <ele>786.02</ele>
        <time>2013-08-31T14:05:18Z</time>
      </trkpt>
      <trkpt lat="44.12616" lon="3.11948">
        <ele>786.02</ele>
        <time>2013-08-31T14:05:32Z</time>
      </trkpt>
      <trkpt lat="44.12602" lon="3.1194">
        <ele>786.02</ele>
        <time>2013-08-31T14:05:45Z</time>
      </trkpt>
      <trkpt lat="44.12584" lon="3.11922">
        <ele>785.53</ele>
        <time>2013-08-31T14:05:57Z</time>
      </trkpt>
      <trkpt lat="44.12568" lon="3.11909">
        <ele>785.53</ele>
        <time>2013-08-31T14:06:08Z</time>
      </trkpt>
      <trkpt lat="44.12556" lon="3.11894">
        <ele>785.05</ele>
        <time>2013-08-31T14:06:18Z</time>
      </trkpt>
      <trkpt lat="44.12536" lon="3.11876">
        <ele>785.05</ele>
        <time>2013-08-31T14:06:29Z</time>
      </trkpt>
      <trkpt lat="44.12523" lon="3.11861">
        <ele>784.57</ele>
        <time>2013-08-31T14:06:42Z</time>
      </trkpt>
      <trkpt lat="44.12516" lon="3.11849">
        <ele>784.09</ele>
        <time>2013-08-31T14:06:51Z</time>
      </trkpt>
      <trkpt lat="44.12513" lon="3.11838">
        <ele>784.09</ele>
        <time>2013-08-31T14:06:56Z</time>
      </trkpt>
      <trkpt lat="44.12513" lon="3.11833">
        <ele>784.09</ele>
        <time>2013-08-31T14:06:58Z</time>
      </trkpt>
      <trkpt lat="44.12509" lon="3.11817">
        <ele>784.09</ele>
        <time>2013-08-31T14:07:06Z</time>
      </trkpt>
      <trkpt lat="44.12509" lon="3.11815">
        <ele>784.57</ele>
        <time>2013-08-31T14:07:07Z</time>
      </trkpt>
      <trkpt lat="44.12507" lon="3.11805">
        <ele>784.09</ele>
        <time>2013-08-31T14:07:10Z</time>
      </trkpt>
      <trkpt lat="44.12508" lon="3.11804">
        <ele>784.09</ele>
        <time>2013-08-31T14:07:11Z</time>
      </trkpt>
      <trkpt lat="44.12509" lon="3.118">
        <ele>784.09</ele>
        <time>2013-08-31T14:07:13Z</time>
      </trkpt>
      <trkpt lat="44.12508" lon="3.11793">
        <ele>784.09</ele>
        <time>2013-08-31T14:07:16Z</time>
      </trkpt>
      <trkpt lat="44.12507" lon="3.11791">
        <ele>784.09</ele>
        <time>2013-08-31T14:07:17Z</time>
      </trkpt>
      <trkpt lat="44.12507" lon="3.11789">
        <ele>784.09</ele>
        <time>2013-08-31T14:07:18Z</time>
      </trkpt>
      <trkpt lat="44.12507" lon="3.11765">
        <ele>784.09</ele>
        <time>2013-08-31T14:07:29Z</time>
      </trkpt>
      <trkpt lat="44.12509" lon="3.11756">
        <ele>784.09</ele>
        <time>2013-08-31T14:07:38Z</time>
      </trkpt>
      <trkpt lat="44.12509" lon="3.11755">
        <ele>784.09</ele>
        <time>2013-08-31T14:07:39Z</time>
      </trkpt>
      <trkpt lat="44.1251" lon="3.11725">
        <ele>784.09</ele>
        <time>2013-08-31T14:07:54Z</time>
      </trkpt>
      <trkpt lat="44.12509" lon="3.11698">
        <ele>784.57</ele>
        <time>2013-08-31T14:08:06Z</time>
      </trkpt>
      <trkpt lat="44.1251" lon="3.11687">
        <ele>785.05</ele>
        <time>2013-08-31T14:08:11Z</time>
      </trkpt>
      <trkpt lat="44.12507" lon="3.11669">
        <ele>785.05</ele>
        <time>2013-08-31T14:08:19Z</time>
      </trkpt>
      <trkpt lat="44.12504" lon="3.11659">
        <ele>784.57</ele>
        <time>2013-08-31T14:08:23Z</time>
      </trkpt>
      <trkpt lat="44.12502" lon="3.11644">
        <ele>784.09</ele>
        <time>2013-08-31T14:08:32Z</time>
      </trkpt>
      <trkpt lat="44.12495" lon="3.11631">
        <ele>784.57</ele>
        <time>2013-08-31T14:08:42Z</time>
      </trkpt>
      <trkpt lat="44.12479" lon="3.1161">
        <ele>784.09</ele>
        <time>2013-08-31T14:08:58Z</time>
      </trkpt>
      <trkpt lat="44.12466" lon="3.11598">
        <ele>784.09</ele>
        <time>2013-08-31T14:09:10Z</time>
      </trkpt>
      <trkpt lat="44.12442" lon="3.11575">
        <ele>784.57</ele>
        <time>2013-08-31T14:09:24Z</time>
      </trkpt>
      <trkpt lat="44.12417" lon="3.1156">
        <ele>784.09</ele>
        <time>2013-08-31T14:09:39Z</time>
      </trkpt>
      <trkpt lat="44.12394" lon="3.1155">
        <ele>784.09</ele>
        <time>2013-08-31T14:09:53Z</time>
      </trkpt>
      <trkpt lat="44.12369" lon="3.11536">
        <ele>782.65</ele>
        <time>2013-08-31T14:10:08Z</time>
      </trkpt>
      <trkpt lat="44.12363" lon="3.11531">
        <ele>782.65</ele>
        <time>2013-08-31T14:10:12Z</time>
      </trkpt>
      <trkpt lat="44.12357" lon="3.11528">
        <ele>783.61</ele>
        <time>2013-08-31T14:10:16Z</time>
      </trkpt>
      <trkpt lat="44.12338" lon="3.11517">
        <ele>782.65</ele>
        <time>2013-08-31T14:10:31Z</time>
      </trkpt>
      <trkpt lat="44.12326" lon="3.1151">
        <ele>782.65</ele>
        <time>2013-08-31T14:10:44Z</time>
      </trkpt>
      <trkpt lat="44.12304" lon="3.11496">
        <ele>781.69</ele>
        <time>2013-08-31T14:10:59Z</time>
      </trkpt>
      <trkpt lat="44.12282" lon="3.11482">
        <ele>781.69</ele>
        <time>2013-08-31T14:11:14Z</time>
      </trkpt>
      <trkpt lat="44.12262" lon="3.11472">
        <ele>781.21</ele>
        <time>2013-08-31T14:11:29Z</time>
      </trkpt>
      <trkpt lat="44.12242" lon="3.11461">
        <ele>780.73</ele>
        <time>2013-08-31T14:11:43Z</time>
      </trkpt>
      <trkpt lat="44.12228" lon="3.11454">
        <ele>778.81</ele>
        <time>2013-08-31T14:11:53Z</time>
      </trkpt>
      <trkpt lat="44.12205" lon="3.11447">
        <ele>779.77</ele>
        <time>2013-08-31T14:12:08Z</time>
      </trkpt>
      <trkpt lat="44.12183" lon="3.11439">
        <ele>780.73</ele>
        <time>2013-08-31T14:12:20Z</time>
      </trkpt>
      <trkpt lat="44.12166" lon="3.11431">
        <ele>779.29</ele>
        <time>2013-08-31T14:12:31Z</time>
      </trkpt>
      <trkpt lat="44.1216" lon="3.11427">
        <ele>778.81</ele>
        <time>2013-08-31T14:12:35Z</time>
      </trkpt>
      <trkpt lat="44.1214" lon="3.11416">
        <ele>779.77</ele>
        <time>2013-08-31T14:12:48Z</time>
      </trkpt>
      <trkpt lat="44.12123" lon="3.11405">
        <ele>780.73</ele>
        <time>2013-08-31T14:12:58Z</time>
      </trkpt>
      <trkpt lat="44.12104" lon="3.11394">
        <ele>779.77</ele>
        <time>2013-08-31T14:13:10Z</time>
      </trkpt>
      <trkpt lat="44.12091" lon="3.11391">
        <ele>780.25</ele>
        <time>2013-08-31T14:13:22Z</time>
      </trkpt>
      <trkpt lat="44.12071" lon="3.11378">
        <ele>780.73</ele>
        <time>2013-08-31T14:13:33Z</time>
      </trkpt>
      <trkpt lat="44.12057" lon="3.11374">
        <ele>780.73</ele>
        <time>2013-08-31T14:13:45Z</time>
      </trkpt>
      <trkpt lat="44.12039" lon="3.11367">
        <ele>779.77</ele>
        <time>2013-08-31T14:13:55Z</time>
      </trkpt>
      <trkpt lat="44.12022" lon="3.11362">
        <ele>780.25</ele>
        <time>2013-08-31T14:14:08Z</time>
      </trkpt>
      <trkpt lat="44.11999" lon="3.11354">
        <ele>780.25</ele>
        <time>2013-08-31T14:14:22Z</time>
      </trkpt>
      <trkpt lat="44.11993" lon="3.11352">
        <ele>780.73</ele>
        <time>2013-08-31T14:14:25Z</time>
      </trkpt>
      <trkpt lat="44.11972" lon="3.11343">
        <ele>780.73</ele>
        <time>2013-08-31T14:14:40Z</time>
      </trkpt>
      <trkpt lat="44.11958" lon="3.11334">
        <ele>781.21</ele>
        <time>2013-08-31T14:14:54Z</time>
      </trkpt>
      <trkpt lat="44.1195" lon="3.11333">
        <ele>780.73</ele>
        <time>2013-08-31T14:15:06Z</time>
      </trkpt>
      <trkpt lat="44.11948" lon="3.11327">
        <ele>780.73</ele>
        <time>2013-08-31T14:15:22Z</time>
      </trkpt>
      <trkpt lat="44.11948" lon="3.11325">
        <ele>781.21</ele>
        <time>2013-08-31T14:15:42Z</time>
      </trkpt>
      <trkpt lat="44.1194" lon="3.11322">
        <ele>781.69</ele>
        <time>2013-08-31T14:15:59Z</time>
      </trkpt>
      <trkpt lat="44.11934" lon="3.1132">
        <ele>781.69</ele>
        <time>2013-08-31T14:16:16Z</time>
      </trkpt>
      <trkpt lat="44.11915" lon="3.11316">
        <ele>781.69</ele>
        <time>2013-08-31T14:16:31Z</time>
      </trkpt>
      <trkpt lat="44.11902" lon="3.11309">
        <ele>782.17</ele>
        <time>2013-08-31T14:16:42Z</time>
      </trkpt>
      <trkpt lat="44.11892" lon="3.11303">
        <ele>782.17</ele>
        <time>2013-08-31T14:16:50Z</time>
      </trkpt>
      <trkpt lat="44.11886" lon="3.11298">
        <ele>782.17</ele>
        <time>2013-08-31T14:16:55Z</time>
      </trkpt>
      <trkpt lat="44.11863" lon="3.11287">
        <ele>782.17</ele>
        <time>2013-08-31T14:17:09Z</time>
      </trkpt>
      <trkpt lat="44.11847" lon="3.11277">
        <ele>782.17</ele>
        <time>2013-08-31T14:17:22Z</time>
      </trkpt>
      <trkpt lat="44.11828" lon="3.11266">
        <ele>782.65</ele>
        <time>2013-08-31T14:17:35Z</time>
      </trkpt>
      <trkpt lat="44.11812" lon="3.11257">
        <ele>781.69</ele>
        <time>2013-08-31T14:17:47Z</time>
      </trkpt>
      <trkpt lat="44.11798" lon="3.11245">
        <ele>781.69</ele>
        <time>2013-08-31T14:17:59Z</time>
      </trkpt>
      <trkpt lat="44.11783" lon="3.1123">
        <ele>782.17</ele>
        <time>2013-08-31T14:18:12Z</time>
      </trkpt>
      <trkpt lat="44.11782" lon="3.11229">
        <ele>782.17</ele>
        <time>2013-08-31T14:18:13Z</time>
      </trkpt>
      <trkpt lat="44.11767" lon="3.11222">
        <ele>782.17</ele>
        <time>2013-08-31T14:18:24Z</time>
      </trkpt>
      <trkpt lat="44.11761" lon="3.11216">
        <ele>782.17</ele>
        <time>2013-08-31T14:18:30Z</time>
      </trkpt>
      <trkpt lat="44.11755" lon="3.11209">
        <ele>782.65</ele>
        <time>2013-08-31T14:18:36Z</time>
      </trkpt>
      <trkpt lat="44.11746" lon="3.112">
        <ele>783.13</ele>
        <time>2013-08-31T14:18:42Z</time>
      </trkpt>
      <trkpt lat="44.11726" lon="3.11197">
        <ele>783.13</ele>
        <time>2013-08-31T14:18:56Z</time>
      </trkpt>
      <trkpt lat="44.11707" lon="3.11192">
        <ele>783.13</ele>
        <time>2013-08-31T14:19:10Z</time>
      </trkpt>
      <trkpt lat="44.11704" lon="3.11193">
        <ele>783.13</ele>
        <time>2013-08-31T14:19:13Z</time>
      </trkpt>
      <trkpt lat="44.11686" lon="3.11194">
        <ele>782.65</ele>
        <time>2013-08-31T14:19:27Z</time>
      </trkpt>
      <trkpt lat="44.11671" lon="3.11197">
        <ele>782.17</ele>
        <time>2013-08-31T14:19:38Z</time>
      </trkpt>
      <trkpt lat="44.11659" lon="3.112">
        <ele>782.17</ele>
        <time>2013-08-31T14:19:47Z</time>
      </trkpt>
      <trkpt lat="44.11639" lon="3.11203">
        <ele>782.17</ele>
        <time>2013-08-31T14:19:59Z</time>
      </trkpt>
      <trkpt lat="44.11617" lon="3.11208">
        <ele>783.13</ele>
        <time>2013-08-31T14:20:14Z</time>
      </trkpt>
      <trkpt lat="44.11597" lon="3.11216">
        <ele>782.65</ele>
        <time>2013-08-31T14:20:28Z</time>
      </trkpt>
      <trkpt lat="44.11576" lon="3.11219">
        <ele>781.69</ele>
        <time>2013-08-31T14:20:41Z</time>
      </trkpt>
      <trkpt lat="44.11556" lon="3.1123">
        <ele>781.21</ele>
        <time>2013-08-31T14:20:55Z</time>
      </trkpt>
      <trkpt lat="44.11544" lon="3.11242">
        <ele>781.69</ele>
        <time>2013-08-31T14:21:04Z</time>
      </trkpt>
      <trkpt lat="44.11529" lon="3.11255">
        <ele>782.17</ele>
        <time>2013-08-31T14:21:20Z</time>
      </trkpt>
      <trkpt lat="44.11528" lon="3.11253">
        <ele>782.65</ele>
        <time>2013-08-31T14:21:34Z</time>
      </trkpt>
      <trkpt lat="44.11532" lon="3.11248">
        <ele>782.65</ele>
        <time>2013-08-31T14:21:48Z</time>
      </trkpt>
      <trkpt lat="44.11529" lon="3.11241">
        <ele>783.13</ele>
        <time>2013-08-31T14:22:17Z</time>
      </trkpt>
      <trkpt lat="44.11528" lon="3.11233">
        <ele>782.65</ele>
        <time>2013-08-31T14:22:43Z</time>
      </trkpt>
      <trkpt lat="44.11529" lon="3.1124">
        <ele>783.13</ele>
        <time>2013-08-31T14:22:59Z</time>
      </trkpt>
      <trkpt lat="44.11528" lon="3.1124">
        <ele>783.61</ele>
        <time>2013-08-31T14:23:20Z</time>
      </trkpt>
      <trkpt lat="44.11526" lon="3.11245">
        <ele>784.09</ele>
        <time>2013-08-31T14:23:44Z</time>
      </trkpt>
      <trkpt lat="44.11522" lon="3.11252">
        <ele>785.05</ele>
        <time>2013-08-31T14:24:09Z</time>
      </trkpt>
      <trkpt lat="44.11519" lon="3.11269">
        <ele>785.53</ele>
        <time>2013-08-31T14:24:22Z</time>
      </trkpt>
      <trkpt lat="44.11509" lon="3.11292">
        <ele>786.98</ele>
        <time>2013-08-31T14:24:36Z</time>
      </trkpt>
      <trkpt lat="44.11504" lon="3.11302">
        <ele>788.42</ele>
        <time>2013-08-31T14:24:43Z</time>
      </trkpt>
      <trkpt lat="44.11498" lon="3.11306">
        <ele>788.9</ele>
        <time>2013-08-31T14:24:47Z</time>
      </trkpt>
      <trkpt lat="44.11486" lon="3.1132">
        <ele>789.86</ele>
        <time>2013-08-31T14:24:59Z</time>
      </trkpt>
      <trkpt lat="44.11469" lon="3.11332">
        <ele>789.86</ele>
        <time>2013-08-31T14:25:11Z</time>
      </trkpt>
      <trkpt lat="44.11466" lon="3.11333">
        <ele>790.34</ele>
        <time>2013-08-31T14:25:13Z</time>
      </trkpt>
      <trkpt lat="44.11449" lon="3.1134">
        <ele>790.82</ele>
        <time>2013-08-31T14:25:25Z</time>
      </trkpt>
      <trkpt lat="44.11448" lon="3.1134">
        <ele>790.82</ele>
        <time>2013-08-31T14:25:26Z</time>
      </trkpt>
      <trkpt lat="44.11437" lon="3.11346">
        <ele>790.34</ele>
        <time>2013-08-31T14:25:35Z</time>
      </trkpt>
      <trkpt lat="44.11429" lon="3.11349">
        <ele>791.3</ele>
        <time>2013-08-31T14:25:43Z</time>
      </trkpt>
      <trkpt lat="44.11409" lon="3.11359">
        <ele>792.74</ele>
        <time>2013-08-31T14:26:00Z</time>
      </trkpt>
      <trkpt lat="44.11391" lon="3.11372">
        <ele>795.63</ele>
        <time>2013-08-31T14:26:16Z</time>
      </trkpt>
      <trkpt lat="44.1138" lon="3.11388">
        <ele>798.03</ele>
        <time>2013-08-31T14:26:29Z</time>
      </trkpt>
      <trkpt lat="44.11365" lon="3.11403">
        <ele>799.47</ele>
        <time>2013-08-31T14:26:43Z</time>
      </trkpt>
      <trkpt lat="44.11351" lon="3.11417">
        <ele>801.4</ele>
        <time>2013-08-31T14:26:57Z</time>
      </trkpt>
      <trkpt lat="44.11347" lon="3.11428">
        <ele>801.4</ele>
        <time>2013-08-31T14:27:13Z</time>
      </trkpt>
      <trkpt lat="44.1134" lon="3.1143">
        <ele>802.36</ele>
        <time>2013-08-31T14:27:20Z</time>
      </trkpt>
      <trkpt lat="44.11327" lon="3.1143">
        <ele>803.32</ele>
        <time>2013-08-31T14:27:32Z</time>
      </trkpt>
      <trkpt lat="44.11322" lon="3.1143">
        <ele>803.8</ele>
        <time>2013-08-31T14:27:37Z</time>
      </trkpt>
      <trkpt lat="44.11299" lon="3.11441">
        <ele>803.32</ele>
        <time>2013-08-31T14:27:53Z</time>
      </trkpt>
      <trkpt lat="44.11294" lon="3.1144">
        <ele>802.84</ele>
        <time>2013-08-31T14:28:12Z</time>
      </trkpt>
      <trkpt lat="44.11288" lon="3.11446">
        <ele>802.84</ele>
        <time>2013-08-31T14:28:25Z</time>
      </trkpt>
      <trkpt lat="44.11273" lon="3.11447">
        <ele>802.84</ele>
        <time>2013-08-31T14:28:36Z</time>
      </trkpt>
      <trkpt lat="44.11265" lon="3.1145">
        <ele>802.84</ele>
        <time>2013-08-31T14:28:48Z</time>
      </trkpt>
      <trkpt lat="44.11264" lon="3.11449">
        <ele>803.32</ele>
        <time>2013-08-31T14:28:51Z</time>
      </trkpt>
      <trkpt lat="44.11244" lon="3.11446">
        <ele>802.84</ele>
        <time>2013-08-31T14:29:04Z</time>
      </trkpt>
      <trkpt lat="44.11242" lon="3.11446">
        <ele>802.84</ele>
        <time>2013-08-31T14:29:05Z</time>
      </trkpt>
      <trkpt lat="44.11221" lon="3.11452">
        <ele>802.84</ele>
        <time>2013-08-31T14:29:19Z</time>
      </trkpt>
      <trkpt lat="44.11196" lon="3.11461">
        <ele>802.36</ele>
        <time>2013-08-31T14:29:34Z</time>
      </trkpt>
      <trkpt lat="44.11174" lon="3.1147">
        <ele>801.4</ele>
        <time>2013-08-31T14:29:48Z</time>
      </trkpt>
      <trkpt lat="44.11155" lon="3.11491">
        <ele>800.44</ele>
        <time>2013-08-31T14:30:04Z</time>
      </trkpt>
      <trkpt lat="44.11137" lon="3.11515">
        <ele>798.51</ele>
        <time>2013-08-31T14:30:19Z</time>
      </trkpt>
      <trkpt lat="44.11118" lon="3.11547">
        <ele>797.07</ele>
        <time>2013-08-31T14:30:37Z</time>
      </trkpt>
      <trkpt lat="44.11096" lon="3.11577">
        <ele>795.63</ele>
        <time>2013-08-31T14:30:56Z</time>
      </trkpt>
      <trkpt lat="44.11092" lon="3.11591">
        <ele>795.63</ele>
        <time>2013-08-31T14:31:03Z</time>
      </trkpt>
      <trkpt lat="44.11107" lon="3.116">
        <ele>798.51</ele>
        <time>2013-08-31T14:31:18Z</time>
      </trkpt>
      <trkpt lat="44.1111" lon="3.11599">
        <ele>798.99</ele>
        <time>2013-08-31T14:31:20Z</time>
      </trkpt>
      <trkpt lat="44.11125" lon="3.116">
        <ele>800.44</ele>
        <time>2013-08-31T14:31:33Z</time>
      </trkpt>
      <trkpt lat="44.11149" lon="3.11606">
        <ele>803.32</ele>
        <time>2013-08-31T14:31:50Z</time>
      </trkpt>
      <trkpt lat="44.11169" lon="3.11616">
        <ele>806.68</ele>
        <time>2013-08-31T14:32:07Z</time>
      </trkpt>
      <trkpt lat="44.11186" lon="3.11623">
        <ele>808.61</ele>
        <time>2013-08-31T14:32:20Z</time>
      </trkpt>
      <trkpt lat="44.11203" lon="3.11624">
        <ele>811.97</ele>
        <time>2013-08-31T14:32:33Z</time>
      </trkpt>
      <trkpt lat="44.11223" lon="3.11621">
        <ele>815.34</ele>
        <time>2013-08-31T14:32:50Z</time>
      </trkpt>
      <trkpt lat="44.11225" lon="3.11621">
        <ele>815.82</ele>
        <time>2013-08-31T14:32:52Z</time>
      </trkpt>
      <trkpt lat="44.11247" lon="3.11618">
        <ele>819.18</ele>
        <time>2013-08-31T14:33:09Z</time>
      </trkpt>
      <trkpt lat="44.11253" lon="3.11616">
        <ele>819.66</ele>
        <time>2013-08-31T14:33:20Z</time>
      </trkpt>
      <trkpt lat="44.11255" lon="3.11615">
        <ele>820.62</ele>
        <time>2013-08-31T14:33:23Z</time>
      </trkpt>
      <trkpt lat="44.11275" lon="3.1161">
        <ele>822.06</ele>
        <time>2013-08-31T14:33:37Z</time>
      </trkpt>
      <trkpt lat="44.11295" lon="3.11609">
        <ele>824.47</ele>
        <time>2013-08-31T14:33:54Z</time>
      </trkpt>
      <trkpt lat="44.11291" lon="3.11607">
        <ele>824.47</ele>
        <time>2013-08-31T14:34:10Z</time>
      </trkpt>
      <trkpt lat="44.11303" lon="3.11611">
        <ele>824.95</ele>
        <time>2013-08-31T14:34:24Z</time>
      </trkpt>
      <trkpt lat="44.11313" lon="3.11615">
        <ele>825.91</ele>
        <time>2013-08-31T14:34:34Z</time>
      </trkpt>
      <trkpt lat="44.1132" lon="3.11618">
        <ele>825.91</ele>
        <time>2013-08-31T14:34:39Z</time>
      </trkpt>
      <trkpt lat="44.11322" lon="3.1162">
        <ele>825.91</ele>
        <time>2013-08-31T14:34:41Z</time>
      </trkpt>
      <trkpt lat="44.11343" lon="3.11629">
        <ele>826.87</ele>
        <time>2013-08-31T14:34:57Z</time>
      </trkpt>
      <trkpt lat="44.11362" lon="3.11636">
        <ele>828.31</ele>
        <time>2013-08-31T14:35:11Z</time>
      </trkpt>
      <trkpt lat="44.11378" lon="3.11643">
        <ele>829.76</ele>
        <time>2013-08-31T14:35:23Z</time>
      </trkpt>
      <trkpt lat="44.11392" lon="3.11645">
        <ele>830.24</ele>
        <time>2013-08-31T14:35:34Z</time>
      </trkpt>
      <trkpt lat="44.11403" lon="3.11649">
        <ele>830.72</ele>
        <time>2013-08-31T14:35:40Z</time>
      </trkpt>
      <trkpt lat="44.11423" lon="3.11655">
        <ele>832.64</ele>
        <time>2013-08-31T14:35:55Z</time>
      </trkpt>
      <trkpt lat="44.11426" lon="3.11656">
        <ele>832.64</ele>
        <time>2013-08-31T14:35:57Z</time>
      </trkpt>
      <trkpt lat="44.11432" lon="3.11659">
        <ele>833.6</ele>
        <time>2013-08-31T14:36:02Z</time>
      </trkpt>
      <trkpt lat="44.11457" lon="3.11671">
        <ele>833.6</ele>
        <time>2013-08-31T14:36:19Z</time>
      </trkpt>
      <trkpt lat="44.11459" lon="3.11671">
        <ele>834.08</ele>
        <time>2013-08-31T14:36:21Z</time>
      </trkpt>
      <trkpt lat="44.11471" lon="3.11675">
        <ele>834.08</ele>
        <time>2013-08-31T14:36:36Z</time>
      </trkpt>
      <trkpt lat="44.11476" lon="3.11675">
        <ele>834.56</ele>
        <time>2013-08-31T14:36:48Z</time>
      </trkpt>
      <trkpt lat="44.115" lon="3.11684">
        <ele>835.04</ele>
        <time>2013-08-31T14:37:02Z</time>
      </trkpt>
      <trkpt lat="44.11506" lon="3.11687">
        <ele>835.52</ele>
        <time>2013-08-31T14:37:16Z</time>
      </trkpt>
      <trkpt lat="44.11514" lon="3.11692">
        <ele>836.48</ele>
        <time>2013-08-31T14:37:40Z</time>
      </trkpt>
      <trkpt lat="44.11531" lon="3.11699">
        <ele>836.96</ele>
        <time>2013-08-31T14:37:54Z</time>
      </trkpt>
      <trkpt lat="44.11551" lon="3.11709">
        <ele>838.89</ele>
        <time>2013-08-31T14:38:08Z</time>
      </trkpt>
      <trkpt lat="44.1157" lon="3.11712">
        <ele>839.37</ele>
        <time>2013-08-31T14:38:23Z</time>
      </trkpt>
      <trkpt lat="44.11587" lon="3.11713">
        <ele>840.33</ele>
        <time>2013-08-31T14:38:33Z</time>
      </trkpt>
      <trkpt lat="44.11614" lon="3.11705">
        <ele>841.77</ele>
        <time>2013-08-31T14:38:51Z</time>
      </trkpt>
      <trkpt lat="44.11636" lon="3.11702">
        <ele>842.73</ele>
        <time>2013-08-31T14:39:06Z</time>
      </trkpt>
      <trkpt lat="44.11658" lon="3.11706">
        <ele>842.73</ele>
        <time>2013-08-31T14:39:20Z</time>
      </trkpt>
      <trkpt lat="44.11672" lon="3.11711">
        <ele>842.73</ele>
        <time>2013-08-31T14:39:33Z</time>
      </trkpt>
      <trkpt lat="44.11695" lon="3.11718">
        <ele>841.29</ele>
        <time>2013-08-31T14:39:47Z</time>
      </trkpt>
      <trkpt lat="44.11712" lon="3.11724">
        <ele>840.33</ele>
        <time>2013-08-31T14:40:02Z</time>
      </trkpt>
      <trkpt lat="44.11721" lon="3.11727">
        <ele>841.29</ele>
        <time>2013-08-31T14:40:13Z</time>
      </trkpt>
      <trkpt lat="44.1174" lon="3.11739">
        <ele>839.85</ele>
        <time>2013-08-31T14:40:26Z</time>
      </trkpt>
      <trkpt lat="44.11755" lon="3.11746">
        <ele>838.41</ele>
        <time>2013-08-31T14:40:38Z</time>
      </trkpt>
      <trkpt lat="44.11774" lon="3.11759">
        <ele>837.45</ele>
        <time>2013-08-31T14:40:51Z</time>
      </trkpt>
      <trkpt lat="44.11783" lon="3.11766">
        <ele>836.48</ele>
        <time>2013-08-31T14:40:59Z</time>
      </trkpt>
      <trkpt lat="44.11803" lon="3.11784">
        <ele>835.52</ele>
        <time>2013-08-31T14:41:15Z</time>
      </trkpt>
      <trkpt lat="44.11818" lon="3.118">
        <ele>833.6</ele>
        <time>2013-08-31T14:41:29Z</time>
      </trkpt>
      <trkpt lat="44.11827" lon="3.1182">
        <ele>830.72</ele>
        <time>2013-08-31T14:41:41Z</time>
      </trkpt>
      <trkpt lat="44.11829" lon="3.11823">
        <ele>830.24</ele>
        <time>2013-08-31T14:41:43Z</time>
      </trkpt>
      <trkpt lat="44.11847" lon="3.11838">
        <ele>828.31</ele>
        <time>2013-08-31T14:41:57Z</time>
      </trkpt>
      <trkpt lat="44.11853" lon="3.1184">
        <ele>826.39</ele>
        <time>2013-08-31T14:42:02Z</time>
      </trkpt>
      <trkpt lat="44.11869" lon="3.11838">
        <ele>825.43</ele>
        <time>2013-08-31T14:42:15Z</time>
      </trkpt>
      <trkpt lat="44.11888" lon="3.11832">
        <ele>824.47</ele>
        <time>2013-08-31T14:42:28Z</time>
      </trkpt>
      <trkpt lat="44.11907" lon="3.11824">
        <ele>823.51</ele>
        <time>2013-08-31T14:42:40Z</time>
      </trkpt>
      <trkpt lat="44.11922" lon="3.11814">
        <ele>824.47</ele>
        <time>2013-08-31T14:42:53Z</time>
      </trkpt>
      <trkpt lat="44.11943" lon="3.11803">
        <ele>823.51</ele>
        <time>2013-08-31T14:43:09Z</time>
      </trkpt>
      <trkpt lat="44.11965" lon="3.11796">
        <ele>823.03</ele>
        <time>2013-08-31T14:43:22Z</time>
      </trkpt>
      <trkpt lat="44.11985" lon="3.11793">
        <ele>823.99</ele>
        <time>2013-08-31T14:43:36Z</time>
      </trkpt>
      <trkpt lat="44.12013" lon="3.11799">
        <ele>823.51</ele>
        <time>2013-08-31T14:43:54Z</time>
      </trkpt>
      <trkpt lat="44.12028" lon="3.11808">
        <ele>823.51</ele>
        <time>2013-08-31T14:44:06Z</time>
      </trkpt>
      <trkpt lat="44.1204" lon="3.11821">
        <ele>823.03</ele>
        <time>2013-08-31T14:44:17Z</time>
      </trkpt>
      <trkpt lat="44.1207" lon="3.11868">
        <ele>821.58</ele>
        <time>2013-08-31T14:45:16Z</time>
      </trkpt>
    </trkseg>
  </trk>
</gpx>